Time;durP1;ratioP1;P1;durP2;ratioP2;P2;SDS_P1;SDS_P2;PMS_P1;PMS_P2;Temp;Humidity;BMP_temperature;BMP_pressure;BME280_temperature;BME280_humidity;BME280_pressure;Samples;Min_cycle;Max_cycle;Signal;HPM_P1;HPM_P2
2021/09/06 00:01:14;;;;;;;7.13;5.95;;;22.20;73.10;;;;;;5057899;28;20032;-78
2021/09/06 00:03:40;;;;;;;8.68;6.88;;;22.20;73.60;;;;;;5058206;28;20040;-77
2021/09/06 00:06:06;;;;;;;7.10;6.32;;;22.10;73.90;;;;;;5054469;28;20033;-78
2021/09/06 00:08:31;;;;;;;7.72;5.70;;;22.10;73.60;;;;;;5037095;28;20075;-77
2021/09/06 00:11:09;;;;;;;7.50;6.78;;;22.10;73.50;;;;;;5036812;28;20048;-77
2021/09/06 00:13:35;;;;;;;6.65;6.00;;;22.00;73.60;;;;;;5038178;28;20026;-77
2021/09/06 00:16:01;;;;;;;6.75;5.97;;;22.10;73.40;;;;;;5038439;28;20022;-77
2021/09/06 00:18:27;;;;;;;7.22;6.53;;;22.10;73.50;;;;;;5053238;28;20025;-77
2021/09/06 00:20:56;;;;;;;7.30;6.55;;;22.00;73.50;;;;;;5052160;28;20083;-78
2021/09/06 00:23:22;;;;;;;7.57;6.75;;;22.00;73.30;;;;;;5036728;28;20467;-77
2021/09/06 00:25:48;;;;;;;7.60;6.90;;;21.90;73.60;;;;;;5038089;28;20479;-77
2021/09/06 00:28:14;;;;;;;7.10;6.40;;;21.90;74.10;;;;;;5037937;28;20101;-77
2021/09/06 00:30:39;;;;;;;7.03;6.38;;;21.80;74.10;;;;;;5037948;28;20550;-77
2021/09/06 00:33:06;;;;;;;7.97;6.32;;;21.80;74.60;;;;;;5037523;28;20097;-77
2021/09/06 00:35:31;;;;;;;7.10;6.40;;;21.80;74.20;;;;;;5053122;28;20033;-77
2021/09/06 00:37:57;;;;;;;7.47;6.65;;;21.90;73.90;;;;;;5042931;28;20050;-77
2021/09/06 00:40:23;;;;;;;7.93;6.70;;;21.90;74.00;;;;;;5057787;28;20028;-77
2021/09/06 00:42:49;;;;;;;8.90;6.88;;;21.90;74.10;;;;;;5057347;28;20033;-78
2021/09/06 00:45:14;;;;;;;7.38;6.38;;;21.90;73.90;;;;;;5057638;28;20043;-77
2021/09/06 00:47:41;;;;;;;8.27;7.07;;;21.90;73.90;;;;;;5043915;28;20030;-77
2021/09/06 00:50:12;;;;;;;7.53;6.72;;;21.90;73.90;;;;;;5037610;28;20033;-77
2021/09/06 00:52:40;;;;;;;9.10;7.60;;;21.90;73.80;;;;;;5037019;28;20026;-77
2021/09/06 00:55:07;;;;;;;8.48;6.80;;;21.90;74.00;;;;;;5037285;28;20025;-77
2021/09/06 00:57:33;;;;;;;9.18;7.82;;;21.90;73.80;;;;;;5037394;28;20056;-77
2021/09/06 00:59:59;;;;;;;9.07;7.53;;;21.90;74.10;;;;;;5037252;28;20123;-78
2021/09/06 01:02:25;;;;;;;7.55;6.85;;;21.80;73.90;;;;;;5052487;28;21085;-77
2021/09/06 01:04:51;;;;;;;9.70;8.50;;;21.90;73.80;;;;;;5037079;28;20037;-77
2021/09/06 01:07:17;;;;;;;7.78;7.03;;;21.90;73.80;;;;;;5037315;28;20040;-77
2021/09/06 01:09:43;;;;;;;8.68;6.88;;;21.80;73.50;;;;;;5037027;28;20089;-77
2021/09/06 01:12:09;;;;;;;8.02;7.22;;;21.70;74.00;;;;;;5037145;28;20562;-77
2021/09/06 01:14:34;;;;;;;7.93;7.13;;;21.70;74.00;;;;;;5052369;28;20069;-77
2021/09/06 01:17:01;;;;;;;8.18;7.38;;;21.70;74.30;;;;;;5049166;28;20087;-77
2021/09/06 01:19:27;;;;;;;9.32;8.32;;;21.60;74.20;;;;;;5055569;28;20110;-78
2021/09/06 01:21:53;;;;;;;8.68;7.78;;;21.60;74.60;;;;;;5039828;28;20025;-77
2021/09/06 01:24:18;;;;;;;10.02;8.13;;;21.50;74.80;;;;;;5039393;28;20094;-77
2021/09/06 01:26:47;;;;;;;9.70;8.10;;;21.50;74.60;;;;;;5051432;28;20084;-77
2021/09/06 01:29:13;;;;;;;8.43;7.63;;;21.50;74.80;;;;;;5037910;28;20392;-77
2021/09/06 01:31:39;;;;;;;8.93;7.72;;;21.40;75.10;;;;;;5056804;28;20072;-77
2021/09/06 01:34:06;;;;;;;8.25;7.45;;;21.30;75.20;;;;;;5056654;28;20025;-77
2021/09/06 01:36:32;;;;;;;8.18;7.10;;;21.30;75.20;;;;;;5055704;28;20045;-77
2021/09/06 01:38:58;;;;;;;9.07;7.53;;;21.30;75.50;;;;;;5036684;28;20025;-77
2021/09/06 01:41:24;;;;;;;8.15;7.35;;;21.30;75.30;;;;;;5045570;28;20025;-77
2021/09/06 01:43:49;;;;;;;8.73;7.93;;;21.30;75.30;;;;;;5036500;28;20029;-77
2021/09/06 01:46:15;;;;;;;8.20;7.38;;;21.30;75.30;;;;;;5036557;28;20018;-77
2021/09/06 01:48:41;;;;;;;8.80;7.75;;;21.40;75.10;;;;;;5036323;28;20025;-77
2021/09/06 01:51:06;;;;;;;8.38;7.57;;;21.30;75.20;;;;;;5036224;28;20091;-77
2021/09/06 01:53:32;;;;;;;9.55;7.95;;;21.30;74.80;;;;;;5036278;28;20029;-77
2021/09/06 01:55:58;;;;;;;9.23;7.90;;;21.40;74.80;;;;;;5036164;28;20132;-77
2021/09/06 01:58:23;;;;;;;9.35;8.10;;;21.30;74.90;;;;;;5036170;28;20063;-76
2021/09/06 02:00:49;;;;;;;10.63;7.82;;;21.30;75.00;;;;;;5035996;28;20049;-77
2021/09/06 02:03:15;;;;;;;9.40;8.38;;;21.30;75.00;;;;;;5035889;28;20079;-77
2021/09/06 02:05:40;;;;;;;8.82;8.02;;;21.30;75.20;;;;;;5034137;28;20064;-77
2021/09/06 02:08:06;;;;;;;8.80;7.97;;;21.20;75.40;;;;;;5036000;28;20033;-77
2021/09/06 02:10:32;;;;;;;8.63;7.78;;;21.20;75.70;;;;;;5035964;28;20029;-77
2021/09/06 02:12:57;;;;;;;9.13;8.15;;;21.20;75.60;;;;;;5049371;28;20029;-78
2021/09/06 02:15:23;;;;;;;9.30;8.32;;;21.20;75.20;;;;;;5054583;28;20578;-77
2021/09/06 02:17:49;;;;;;;10.18;8.25;;;21.30;74.80;;;;;;5054286;28;20478;-77
2021/09/06 02:20:15;;;;;;;8.70;7.70;;;21.20;74.70;;;;;;5055828;28;20369;-77
2021/09/06 02:22:40;;;;;;;8.30;7.50;;;21.20;75.30;;;;;;5049974;28;20045;-77
2021/09/06 02:25:07;;;;;;;8.65;7.72;;;21.00;75.30;;;;;;5034234;28;20034;-77
2021/09/06 02:27:32;;;;;;;8.60;7.72;;;20.90;75.50;;;;;;5035826;28;20112;-77
2021/09/06 02:29:58;;;;;;;8.57;7.72;;;20.80;76.10;;;;;;5035635;28;20069;-77
2021/09/06 02:32:24;;;;;;;10.32;8.05;;;20.80;76.40;;;;;;5035350;28;20028;-77
2021/09/06 02:34:49;;;;;;;9.77;8.85;;;20.90;76.00;;;;;;5035712;28;20155;-77
2021/09/06 02:37:16;;;;;;;8.80;7.70;;;20.90;76.00;;;;;;5035649;28;20039;-76
2021/09/06 02:39:42;;;;;;;9.23;8.32;;;20.90;75.80;;;;;;5034272;28;20021;-77
2021/09/06 02:42:08;;;;;;;9.00;8.10;;;20.90;75.60;;;;;;5072713;28;20040;-76
2021/09/06 02:44:34;;;;;;;8.90;7.88;;;20.90;75.60;;;;;;5073057;28;20478;-77
2021/09/06 02:46:59;;;;;;;10.40;9.40;;;20.90;75.80;;;;;;5035399;28;20040;-77
2021/09/06 02:49:25;;;;;;;10.98;8.80;;;20.80;76.30;;;;;;5035493;28;20567;-77
2021/09/06 02:51:51;;;;;;;11.52;8.55;;;20.80;76.10;;;;;;5035290;28;20030;-77
2021/09/06 02:54:17;;;;;;;9.30;8.32;;;20.80;75.80;;;;;;5035596;28;20547;-76
2021/09/06 02:56:43;;;;;;;11.02;8.82;;;20.80;75.90;;;;;;5034041;28;20141;-77
2021/09/06 02:59:09;;;;;;;9.52;8.63;;;20.80;75.80;;;;;;5034995;28;20077;-77
2021/09/06 03:01:35;;;;;;;9.88;8.90;;;20.80;75.80;;;;;;5035323;28;20063;-77
2021/09/06 03:04:00;;;;;;;9.43;8.40;;;20.80;75.80;;;;;;5050355;28;20032;-77
2021/09/06 03:06:26;;;;;;;9.50;8.60;;;20.70;76.30;;;;;;5047031;28;20033;-77
2021/09/06 03:08:52;;;;;;;9.60;8.52;;;20.70;76.00;;;;;;5055195;28;20052;-77
2021/09/06 03:11:23;;;;;;;10.45;9.25;;;20.70;76.00;;;;;;5050501;28;20108;-76
2021/09/06 03:13:52;;;;;;;11.18;9.23;;;20.70;75.90;;;;;;5035201;28;20136;-77
2021/09/06 03:16:18;;;;;;;10.27;9.27;;;20.70;75.70;;;;;;5036854;28;20022;-77
2021/09/06 03:18:43;;;;;;;10.23;9.00;;;20.70;75.70;;;;;;5038997;28;20017;-77
2021/09/06 03:21:09;;;;;;;11.07;9.40;;;20.70;75.50;;;;;;5039225;28;20043;-77
2021/09/06 03:23:35;;;;;;;9.75;8.55;;;20.70;75.60;;;;;;5055129;28;20029;-77
2021/09/06 03:26:00;;;;;;;10.50;9.13;;;20.70;75.50;;;;;;5057730;28;20032;-77
2021/09/06 03:28:26;;;;;;;10.70;9.23;;;20.70;75.30;;;;;;5059186;28;20025;-77
2021/09/06 03:30:52;;;;;;;10.18;9.13;;;20.70;75.30;;;;;;5053083;28;20450;-77
2021/09/06 03:33:18;;;;;;;12.23;9.93;;;20.70;75.40;;;;;;5038912;28;20072;-77
2021/09/06 03:35:43;;;;;;;10.20;9.10;;;20.70;75.30;;;;;;5038997;28;20188;-77
2021/09/06 03:38:11;;;;;;;12.80;9.90;;;20.60;75.40;;;;;;5039015;28;20060;-77
2021/09/06 03:40:36;;;;;;;10.55;8.90;;;20.70;75.20;;;;;;5059203;28;20032;-77
2021/09/06 03:43:03;;;;;;;11.25;9.38;;;20.60;75.50;;;;;;5078785;28;20479;-77
2021/09/06 03:45:28;;;;;;;10.63;9.35;;;20.50;75.60;;;;;;5054970;28;20603;-76
2021/09/06 03:47:54;;;;;;;9.85;8.70;;;20.50;75.60;;;;;;5038443;28;20026;-77
2021/09/06 03:50:19;;;;;;;11.50;10.13;;;20.40;75.70;;;;;;5058284;28;20048;-77
2021/09/06 03:52:45;;;;;;;10.27;9.00;;;20.40;75.60;;;;;;5046982;28;20071;-77
2021/09/06 03:55:11;;;;;;;11.25;10.05;;;20.30;75.70;;;;;;5038681;28;20097;-77
2021/09/06 03:57:37;;;;;;;10.88;9.02;;;20.30;75.80;;;;;;5038451;28;20018;-77
2021/09/06 04:00:03;;;;;;;12.35;9.85;;;20.30;76.00;;;;;;5038425;28;20077;-77
2021/09/06 04:02:29;;;;;;;10.57;9.23;;;20.30;75.80;;;;;;5038307;28;20496;-77
2021/09/06 04:04:55;;;;;;;13.07;10.15;;;20.30;75.80;;;;;;5038355;28;20175;-77
2021/09/06 04:07:21;;;;;;;10.60;9.50;;;20.30;75.70;;;;;;5037024;28;20107;-77
2021/09/06 04:09:47;;;;;;;12.27;10.48;;;20.30;75.50;;;;;;5057021;28;20033;-77
2021/09/06 04:12:12;;;;;;;9.70;8.70;;;20.30;75.80;;;;;;5058275;28;20025;-78
2021/09/06 04:14:38;;;;;;;11.07;9.90;;;20.30;75.60;;;;;;5046671;28;20068;-77
2021/09/06 04:17:04;;;;;;;10.77;8.80;;;20.30;75.70;;;;;;5036796;28;20021;-78
2021/09/06 04:19:33;;;;;;;10.70;9.05;;;20.30;75.70;;;;;;5036826;28;20030;-77
2021/09/06 04:22:00;;;;;;;11.65;9.90;;;20.30;75.50;;;;;;5038016;28;20029;-77
2021/09/06 04:24:26;;;;;;;10.77;9.27;;;20.30;75.40;;;;;;5038116;28;20068;-77
2021/09/06 04:26:52;;;;;;;12.30;9.57;;;20.30;75.50;;;;;;5050814;28;20033;-77
2021/09/06 04:29:18;;;;;;;11.65;9.68;;;20.30;75.40;;;;;;5036153;28;20060;-77
2021/09/06 04:31:44;;;;;;;12.38;10.35;;;20.30;75.60;;;;;;5037863;28;20033;-77
2021/09/06 04:34:10;;;;;;;10.98;9.77;;;20.30;75.70;;;;;;5037763;28;20476;-77
2021/09/06 04:36:38;;;;;;;12.23;10.70;;;20.30;76.00;;;;;;5038622;28;20030;-77
2021/09/06 04:39:04;;;;;;;10.52;9.43;;;20.20;76.00;;;;;;5037089;28;20029;-77
2021/09/06 04:41:30;;;;;;;13.45;9.70;;;20.20;76.00;;;;;;5062824;28;20025;-75
2021/09/06 04:43:55;;;;;;;12.10;10.15;;;20.10;76.20;;;;;;5040952;28;20030;-77
2021/09/06 04:46:21;;;;;;;11.98;10.65;;;20.10;76.10;;;;;;5037479;28;20105;-76
2021/09/06 04:48:47;;;;;;;10.73;9.60;;;20.10;76.40;;;;;;5037666;28;20030;-81
2021/09/06 04:51:13;;;;;;;11.23;10.07;;;20.10;76.10;;;;;;5037631;28;20037;-77
2021/09/06 04:53:48;;;;;;;10.80;9.68;;;20.00;76.50;;;;;;5052026;28;20087;-79
2021/09/06 04:56:14;;;;;;;11.45;9.90;;;20.10;76.00;;;;;;5037712;28;20056;-79
2021/09/06 04:58:40;;;;;;;10.98;9.77;;;20.10;76.10;;;;;;5037320;28;20030;-80
2021/09/06 05:01:07;;;;;;;11.38;10.15;;;20.10;76.20;;;;;;5051203;28;20025;-78
2021/09/06 05:03:33;;;;;;;12.30;9.93;;;20.10;76.20;;;;;;5036356;28;20033;-79
2021/09/06 05:05:59;;;;;;;10.35;9.30;;;20.10;76.20;;;;;;5051921;28;20083;-77
2021/09/06 05:08:26;;;;;;;11.20;10.05;;;20.00;76.30;;;;;;5036976;28;20029;-83
2021/09/06 05:10:53;;;;;;;11.02;9.18;;;20.00;76.20;;;;;;5038052;28;20060;-83
2021/09/06 05:13:18;;;;;;;11.23;9.82;;;20.00;76.50;;;;;;5044056;28;20127;-79
2021/09/06 05:15:44;;;;;;;11.15;9.70;;;19.90;76.40;;;;;;5053778;28;20115;-85
2021/09/06 05:18:13;;;;;;;10.30;9.10;;;19.90;76.60;;;;;;5050692;28;20025;-78
2021/09/06 05:20:39;;;;;;;12.07;10.52;;;19.90;76.60;;;;;;5036533;28;20420;-81
2021/09/06 05:23:05;;;;;;;11.05;9.75;;;19.90;76.30;;;;;;5036760;28;20093;-80
2021/09/06 05:25:31;;;;;;;11.57;10.30;;;19.90;76.30;;;;;;5035474;28;20455;-78
2021/09/06 05:27:59;;;;;;;11.13;9.98;;;19.90;76.30;;;;;;5036817;28;20032;-78
2021/09/06 05:30:24;;;;;;;11.25;10.05;;;19.90;76.00;;;;;;5045004;28;20028;-78
2021/09/06 05:32:50;;;;;;;11.57;10.05;;;19.90;76.20;;;;;;5052222;28;20029;-80
2021/09/06 05:35:15;;;;;;;10.90;9.75;;;19.80;76.40;;;;;;5030127;28;20021;-83
2021/09/06 05:37:41;;;;;;;10.90;9.80;;;19.80;76.00;;;;;;5036450;28;20025;-83
2021/09/06 05:40:07;;;;;;;14.90;10.80;;;19.80;76.20;;;;;;5039879;28;20693;-78
2021/09/06 05:42:33;;;;;;;11.68;9.52;;;19.80;76.50;;;;;;5067605;28;20058;-79
2021/09/06 05:44:59;;;;;;;11.68;9.25;;;19.70;76.70;;;;;;5056447;28;20090;-77
2021/09/06 05:47:24;;;;;;;10.25;9.13;;;19.70;76.70;;;;;;5055166;28;20032;-77
2021/09/06 05:49:50;;;;;;;10.02;9.00;;;19.80;76.50;;;;;;5055151;28;20025;-78
2021/09/06 05:52:16;;;;;;;10.25;9.05;;;19.80;76.10;;;;;;5049821;28;20026;-77
2021/09/06 05:54:42;;;;;;;11.35;9.20;;;19.80;76.20;;;;;;5034980;28;20025;-78
2021/09/06 05:57:08;;;;;;;11.25;9.75;;;19.80;76.40;;;;;;5036241;28;20029;-77
2021/09/06 05:59:33;;;;;;;10.40;8.52;;;19.80;76.10;;;;;;5038323;28;20500;-77
2021/09/06 06:02:00;;;;;;;10.25;8.98;;;19.80;75.90;;;;;;5038948;28;20124;-77
2021/09/06 06:04:26;;;;;;;10.80;8.52;;;19.90;76.00;;;;;;5036236;28;20565;-77
2021/09/06 06:06:51;;;;;;;10.48;8.77;;;19.90;75.80;;;;;;5048294;28;20037;-77
2021/09/06 06:09:17;;;;;;;10.85;9.15;;;19.90;75.70;;;;;;5047592;28;20025;-77
2021/09/06 06:11:43;;;;;;;9.55;8.55;;;19.80;75.80;;;;;;5045278;28;20037;-78
2021/09/06 06:14:09;;;;;;;9.75;8.77;;;19.90;75.80;;;;;;5036314;28;20033;-77
2021/09/06 06:16:35;;;;;;;10.25;9.18;;;19.90;75.90;;;;;;5035712;28;20078;-77
2021/09/06 06:19:01;;;;;;;11.75;10.45;;;19.90;76.00;;;;;;5035718;28;20104;-77
2021/09/06 06:21:27;;;;;;;10.65;9.55;;;20.00;75.90;;;;;;5035758;28;20037;-77
2021/09/06 06:23:53;;;;;;;10.45;8.80;;;19.90;76.00;;;;;;5046970;28;20029;-77
2021/09/06 06:26:19;;;;;;;10.70;9.50;;;19.90;76.00;;;;;;5036085;28;20037;-77
2021/09/06 06:28:45;;;;;;;9.38;8.48;;;19.90;76.40;;;;;;5035823;28;20502;-77
2021/09/06 06:31:11;;;;;;;9.60;8.60;;;19.90;76.30;;;;;;5035691;28;20075;-77
2021/09/06 06:33:36;;;;;;;10.20;8.10;;;19.90;76.40;;;;;;5034361;28;20101;-76
2021/09/06 06:36:04;;;;;;;8.95;8.07;;;20.00;76.50;;;;;;5034191;28;20439;-77
2021/09/06 06:38:32;;;;;;;10.35;9.35;;;20.00;76.40;;;;;;5035487;28;20369;-77
2021/09/06 06:40:58;;;;;;;9.93;8.52;;;20.10;76.20;;;;;;5053281;28;20103;-77
2021/09/06 06:43:23;;;;;;;12.63;9.05;;;20.20;76.50;;;;;;5061789;28;20067;-77
2021/09/06 06:45:49;;;;;;;10.48;9.27;;;20.20;76.50;;;;;;5035696;28;20120;-77
2021/09/06 06:48:15;;;;;;;10.23;8.80;;;20.20;76.30;;;;;;5048008;28;20029;-77
2021/09/06 06:50:41;;;;;;;9.75;8.35;;;20.30;76.20;;;;;;5054653;28;20036;-77
2021/09/06 06:53:07;;;;;;;11.82;8.93;;;20.30;76.20;;;;;;5049548;28;20399;-77
2021/09/06 06:55:32;;;;;;;9.25;8.35;;;20.30;76.40;;;;;;5035414;28;20017;-77
2021/09/06 06:57:58;;;;;;;9.60;8.57;;;20.30;76.40;;;;;;5049507;28;20029;-77
2021/09/06 07:00:24;;;;;;;9.18;8.32;;;20.30;76.50;;;;;;5054345;28;20080;-77
2021/09/06 07:02:51;;;;;;;10.07;9.10;;;20.40;76.10;;;;;;5035108;28;20056;-77
2021/09/06 07:05:17;;;;;;;9.65;8.68;;;20.50;76.30;;;;;;5035207;28;20026;-77
2021/09/06 07:07:43;;;;;;;9.43;8.50;;;20.50;76.20;;;;;;5035046;28;20419;-77
2021/09/06 07:10:10;;;;;;;9.05;8.15;;;20.50;76.80;;;;;;5035021;28;20039;-77
2021/09/06 07:12:40;;;;;;;9.93;8.30;;;20.60;76.80;;;;;;5035287;28;20025;-77
2021/09/06 07:15:06;;;;;;;11.27;8.47;;;20.60;76.40;;;;;;5040898;28;20040;-77
2021/09/06 07:17:32;;;;;;;10.52;8.40;;;20.60;76.40;;;;;;5053580;28;20075;-77
2021/09/06 07:19:58;;;;;;;9.90;8.25;;;20.70;76.70;;;;;;5044342;28;20033;-77
2021/09/06 07:22:24;;;;;;;8.70;7.65;;;20.80;76.10;;;;;;5034880;28;20399;-76
2021/09/06 07:24:50;;;;;;;8.48;7.68;;;21.00;76.00;;;;;;5035217;28;20061;-77
2021/09/06 07:27:15;;;;;;;8.85;7.90;;;21.30;75.60;;;;;;5035248;28;20025;-77
2021/09/06 07:29:41;;;;;;;8.40;7.30;;;21.50;75.00;;;;;;5034886;28;20030;-77
2021/09/06 07:32:07;;;;;;;8.85;6.97;;;21.70;74.40;;;;;;5033963;28;20025;-77
2021/09/06 07:34:35;;;;;;;8.43;6.75;;;22.50;72.60;;;;;;5035006;28;20484;-77
2021/09/06 07:37:05;;;;;;;6.18;5.45;;;24.50;67.40;;;;;;5034822;28;20801;-77
2021/09/06 07:39:32;;;;;;;8.75;5.55;;;27.30;58.70;;;;;;5035095;28;20105;-77
2021/09/06 07:41:58;;;;;;;6.18;4.80;;;29.30;53.50;;;;;;5042810;28;20147;-77
2021/09/06 07:44:24;;;;;;;5.75;4.57;;;30.90;47.80;;;;;;5034817;28;20021;-77
2021/09/06 07:46:50;;;;;;;5.68;4.47;;;32.20;45.70;;;;;;5034932;28;20516;-78
2021/09/06 07:49:16;;;;;;;4.80;4.40;;;33.10;43.30;;;;;;5035080;28;20021;-78
2021/09/06 07:51:42;;;;;;;5.85;4.22;;;33.80;41.90;;;;;;5035080;28;20032;-78
2021/09/06 07:54:08;;;;;;;4.35;3.95;;;34.10;40.90;;;;;;5033452;28;20033;-78
2021/09/06 07:56:35;;;;;;;4.35;3.90;;;34.50;39.90;;;;;;5034955;28;20014;-78
2021/09/06 07:59:00;;;;;;;6.47;4.07;;;34.70;39.10;;;;;;5034557;28;20116;-78
2021/09/06 08:01:26;;;;;;;5.70;3.75;;;34.90;39.20;;;;;;5035053;28;20068;-78
2021/09/06 08:03:51;;;;;;;3.58;3.28;;;35.30;38.30;;;;;;5036970;28;20022;-79
2021/09/06 08:06:17;;;;;;;3.70;3.40;;;35.60;38.30;;;;;;5038692;28;20033;-78
2021/09/06 08:08:43;;;;;;;5.85;4.00;;;36.00;37.70;;;;;;5037144;28;20078;-78
2021/09/06 08:11:08;;;;;;;3.92;3.58;;;36.40;36.90;;;;;;5045169;28;20029;-78
2021/09/06 08:13:34;;;;;;;3.22;2.92;;;36.90;36.00;;;;;;5058443;28;20044;-78
2021/09/06 08:16:00;;;;;;;2.95;2.75;;;37.00;35.80;;;;;;5058477;28;20021;-77
2021/09/06 08:18:26;;;;;;;2.85;2.65;;;37.00;35.90;;;;;;5058064;28;20037;-78
2021/09/06 08:20:51;;;;;;;3.15;2.85;;;36.80;36.10;;;;;;5052458;28;20026;-78
2021/09/06 08:23:17;;;;;;;2.72;2.47;;;36.80;35.70;;;;;;5036802;28;20029;-78
2021/09/06 08:25:42;;;;;;;2.95;2.45;;;36.90;36.00;;;;;;5038294;28;20100;-78
2021/09/06 08:28:08;;;;;;;2.58;2.15;;;37.20;35.50;;;;;;5037934;28;20025;-79
2021/09/06 08:30:34;;;;;;;2.28;2.00;;;37.10;35.40;;;;;;5038189;28;20041;-78
2021/09/06 08:33:02;;;;;;;2.60;2.40;;;37.40;35.00;;;;;;5037968;28;20080;-78
2021/09/06 08:35:27;;;;;;;3.45;2.28;;;37.30;34.70;;;;;;5037774;28;20033;-78
2021/09/06 08:37:53;;;;;;;2.33;2.13;;;37.20;33.70;;;;;;5037773;28;20843;-78
2021/09/06 08:40:19;;;;;;;2.40;2.20;;;37.50;35.00;;;;;;5045105;28;20463;-78
2021/09/06 08:42:44;;;;;;;3.08;2.53;;;37.70;34.20;;;;;;5074620;28;20020;-78
2021/09/06 08:45:12;;;;;;;3.00;2.30;;;37.80;34.80;;;;;;5037721;28;20104;-78
2021/09/06 08:47:37;;;;;;;3.13;2.92;;;37.80;34.50;;;;;;5037879;28;20083;-78
2021/09/06 08:50:07;;;;;;;2.25;2.00;;;37.30;33.70;;;;;;5046782;28;20037;-78
2021/09/06 08:52:33;;;;;;;2.90;2.38;;;36.90;34.70;;;;;;5058179;28;20025;-78
2021/09/06 08:54:59;;;;;;;2.90;2.10;;;35.90;35.60;;;;;;5057438;28;20021;-78
2021/09/06 08:57:24;;;;;;;2.50;2.30;;;35.40;37.80;;;;;;5050062;28;20055;-77
2021/09/06 08:59:58;;;;;;;3.17;2.58;;;34.30;37.90;;;;;;5037298;28;20539;-77
2021/09/06 09:02:24;;;;;;;4.00;2.33;;;33.90;40.70;;;;;;5051376;28;20060;-77
2021/09/06 09:05:12;;;;;;;2.92;2.20;;;33.70;41.60;;;;;;5055917;28;20029;-77
2021/09/06 09:07:39;;;;;;;3.97;2.67;;;33.80;40.20;;;;;;5055929;28;20056;-77
2021/09/06 09:10:09;;;;;;;3.00;2.70;;;34.10;40.50;;;;;;5047540;28;20036;-77
2021/09/06 09:12:37;;;;;;;2.55;2.33;;;34.30;40.10;;;;;;5037384;28;20030;-77
2021/09/06 09:15:04;;;;;;;3.22;2.72;;;33.80;39.00;;;;;;5037207;28;20025;-77
2021/09/06 09:17:30;;;;;;;5.95;2.80;;;34.50;39.90;;;;;;5037251;28;20452;-77
2021/09/06 09:20:01;;;;;;;2.22;2.03;;;35.20;38.40;;;;;;5052305;28;20060;-77
2021/09/06 09:22:31;;;;;;;2.45;2.25;;;35.80;37.30;;;;;;5037071;28;20033;-77
2021/09/06 09:24:59;;;;;;;3.25;2.45;;;36.30;36.90;;;;;;5036917;28;20024;-77
2021/09/06 09:27:38;;;;;;;3.10;2.10;;;36.60;35.60;;;;;;5037121;28;20031;-77
2021/09/06 09:30:09;;;;;;;2.55;2.20;;;35.80;36.40;;;;;;5036975;28;20021;-77
2021/09/06 09:32:37;;;;;;;2.40;2.15;;;36.30;37.20;;;;;;5036606;28;20061;-77
2021/09/06 09:35:07;;;;;;;4.10;2.22;;;36.60;35.80;;;;;;5036892;28;20032;-77
2021/09/06 09:37:34;;;;;;;3.08;2.10;;;36.80;35.10;;;;;;5036965;28;20028;-78
2021/09/06 09:40:05;;;;;;;2.83;1.95;;;37.20;35.10;;;;;;5038591;28;20152;-77
2021/09/06 09:42:31;;;;;;;2.85;2.40;;;37.30;35.00;;;;;;5076791;28;20095;-78
2021/09/06 09:44:59;;;;;;;2.72;1.92;;;37.40;35.00;;;;;;5036668;28;20061;-78
2021/09/06 09:47:26;;;;;;;2.20;1.70;;;37.60;35.30;;;;;;5036589;28;20073;-78
2021/09/06 09:49:57;;;;;;;2.13;1.80;;;37.90;34.10;;;;;;5052168;28;20373;-78
2021/09/06 09:52:24;;;;;;;4.13;1.90;;;38.10;33.90;;;;;;5051226;28;20025;-78
2021/09/06 09:54:55;;;;;;;5.15;1.90;;;38.00;34.50;;;;;;5051745;28;20029;-78
2021/09/06 09:57:25;;;;;;;1.77;1.60;;;38.00;34.30;;;;;;5036798;28;20480;-78
2021/09/06 09:59:52;;;;;;;2.70;1.70;;;37.90;34.10;;;;;;5036108;28;20079;-78
2021/09/06 10:02:31;;;;;;;2.13;1.42;;;37.80;35.20;;;;;;5035670;28;20037;-77
2021/09/06 10:05:03;;;;;;;3.33;1.40;;;36.90;36.00;;;;;;5039632;28;20053;-77
2021/09/06 10:07:34;;;;;;;2.40;1.80;;;36.60;36.00;;;;;;5055851;28;20129;-77
2021/09/06 10:10:19;;;;;;;2.17;1.50;;;36.10;35.80;;;;;;5055523;28;20048;-77
2021/09/06 10:12:47;;;;;;;1.60;1.40;;;35.30;37.70;;;;;;5050571;28;20064;-77
2021/09/06 10:15:13;;;;;;;1.70;1.30;;;34.60;38.70;;;;;;5035574;28;20037;-78
2021/09/06 10:17:47;;;;;;;1.80;1.40;;;34.00;40.20;;;;;;5035489;28;20057;-77
2021/09/06 10:20:12;;;;;;;2.60;1.40;;;33.70;41.40;;;;;;5034229;28;20057;-77
2021/09/06 10:22:40;;;;;;;2.03;1.45;;;33.30;41.80;;;;;;5038863;28;20523;-77
2021/09/06 10:25:08;;;;;;;2.95;1.42;;;33.10;42.30;;;;;;5054817;28;20544;-77
2021/09/06 10:27:50;;;;;;;2.15;1.45;;;32.80;42.40;;;;;;5055217;28;20045;-77
2021/09/06 10:30:16;;;;;;;1.38;1.13;;;32.40;41.90;;;;;;5053810;28;20040;-77
2021/09/06 10:32:44;;;;;;;2.28;1.60;;;32.00;43.50;;;;;;5049068;28;20049;-77
2021/09/06 10:35:21;;;;;;;3.20;1.48;;;31.50;43.80;;;;;;5035200;28;20095;-77
2021/09/06 10:38:04;;;;;;;1.98;1.42;;;31.50;44.40;;;;;;5035238;28;20053;-77
2021/09/06 10:40:33;;;;;;;2.25;1.20;;;31.60;44.30;;;;;;5039314;28;20299;-77
2021/09/06 10:43:20;;;;;;;3.20;1.65;;;31.70;44.70;;;;;;5050027;28;20041;-77
2021/09/06 10:45:49;;;;;;;4.28;1.35;;;31.60;44.20;;;;;;5050566;28;20064;-77
2021/09/06 10:48:21;;;;;;;3.97;1.67;;;31.70;45.00;;;;;;5050344;28;20057;-77
2021/09/06 10:50:47;;;;;;;1.63;1.25;;;31.80;44.60;;;;;;5034829;28;20057;-78
2021/09/06 10:53:21;;;;;;;1.92;1.25;;;31.40;43.50;;;;;;5034932;28;20048;-77
2021/09/06 10:55:52;;;;;;;2.53;1.30;;;31.30;43.20;;;;;;5034971;28;20532;-76
2021/09/06 10:58:20;;;;;;;2.85;1.40;;;31.00;44.00;;;;;;5034619;28;20081;-78
2021/09/06 11:00:52;;;;;;;2.10;1.55;;;31.10;44.30;;;;;;5034809;28;20053;-78
2021/09/06 11:03:21;;;;;;;2.00;1.08;;;31.00;43.60;;;;;;5034690;28;20049;-78
2021/09/06 11:05:58;;;;;;;4.22;1.42;;;31.10;44.70;;;;;;5034578;28;20042;-78
2021/09/06 11:08:32;;;;;;;2.70;1.30;;;31.20;44.40;;;;;;5034552;28;20061;-80
2021/09/06 11:11:00;;;;;;;1.80;1.15;;;31.10;43.60;;;;;;5049743;28;20507;-80
2021/09/06 11:13:34;;;;;;;5.50;1.40;;;31.10;43.50;;;;;;5048919;28;20154;-80
2021/09/06 11:16:00;;;;;;;2.75;1.10;;;31.10;44.10;;;;;;5054560;28;20127;-78
2021/09/06 11:18:31;;;;;;;1.58;1.02;;;31.20;43.50;;;;;;5053027;28;20053;-82
2021/09/06 11:20:57;;;;;;;4.07;1.10;;;31.30;42.10;;;;;;5045370;28;20046;-81
2021/09/06 11:23:30;;;;;;;3.08;1.05;;;31.30;43.10;;;;;;5034698;28;20147;-81
2021/09/06 11:25:56;;;;;;;1.50;0.90;;;31.30;41.90;;;;;;5033385;28;20052;-81
2021/09/06 11:28:22;;;;;;;1.92;1.05;;;31.30;41.80;;;;;;5034511;28;20033;-79
2021/09/06 11:30:47;;;;;;;1.73;0.90;;;31.40;42.40;;;;;;5034331;28;20113;-79
2021/09/06 11:33:14;;;;;;;2.03;1.10;;;31.40;41.10;;;;;;5034131;28;20049;-78
2021/09/06 11:35:42;;;;;;;1.20;0.85;;;31.40;41.30;;;;;;5052339;28;20048;-78
2021/09/06 11:38:09;;;;;;;2.10;0.90;;;31.30;40.00;;;;;;5057367;28;20522;-78
2021/09/06 11:40:36;;;;;;;1.55;0.88;;;31.30;41.60;;;;;;5050297;28;20049;-78
2021/09/06 11:43:04;;;;;;;1.70;1.30;;;31.40;42.00;;;;;;5070274;28;20450;-79
2021/09/06 11:45:31;;;;;;;1.50;1.15;;;31.40;40.40;;;;;;5038213;28;20446;-78
2021/09/06 11:48:02;;;;;;;1.95;1.17;;;31.50;41.40;;;;;;5038362;28;20044;-78
2021/09/06 11:50:33;;;;;;;1.85;1.00;;;31.50;40.10;;;;;;5038408;28;20045;-81
2021/09/06 11:53:01;;;;;;;3.50;0.90;;;31.30;40.40;;;;;;5056228;28;20084;-79
2021/09/06 11:55:27;;;;;;;1.58;0.93;;;31.50;42.80;;;;;;5058326;28;20059;-78
2021/09/06 11:57:52;;;;;;;1.80;1.10;;;31.50;42.10;;;;;;5057941;28;20056;-78
2021/09/06 12:00:19;;;;;;;2.42;0.85;;;31.60;40.90;;;;;;5046534;28;20046;-78
2021/09/06 12:02:52;;;;;;;2.08;0.93;;;31.50;40.00;;;;;;5038125;28;20041;-79
2021/09/06 12:05:19;;;;;;;1.80;0.90;;;31.60;40.00;;;;;;5037937;28;20132;-80
2021/09/06 12:07:53;;;;;;;2.28;1.13;;;31.70;41.00;;;;;;5039213;28;20112;-78
2021/09/06 12:10:26;;;;;;;2.95;0.98;;;31.60;39.60;;;;;;5062001;28;20053;-78
2021/09/06 12:13:17;;;;;;;1.73;1.02;;;31.40;40.00;;;;;;5037654;28;20064;-77
2021/09/06 12:15:58;;;;;;;1.60;1.00;;;31.60;40.50;;;;;;5037920;28;20046;-79
2021/09/06 12:18:37;;;;;;;1.50;0.90;;;31.70;40.50;;;;;;5037305;28;20052;-80
2021/09/06 12:21:11;;;;;;;2.13;1.20;;;31.80;41.60;;;;;;5037798;28;20087;-77
2021/09/06 12:23:39;;;;;;;1.60;1.00;;;31.80;40.00;;;;;;5037587;28;20042;-77
2021/09/06 12:26:06;;;;;;;1.70;1.15;;;31.60;38.50;;;;;;5037754;28;20047;-77
2021/09/06 12:28:32;;;;;;;1.70;1.10;;;31.50;39.20;;;;;;5052848;28;20049;-77
2021/09/06 12:31:03;;;;;;;2.00;1.15;;;31.40;39.90;;;;;;5037436;28;20041;-77
2021/09/06 12:33:29;;;;;;;1.77;1.10;;;31.50;39.90;;;;;;5037314;28;20056;-77
2021/09/06 12:35:59;;;;;;;1.80;1.13;;;31.50;39.20;;;;;;5037556;28;20056;-77
2021/09/06 12:38:25;;;;;;;1.80;1.20;;;31.30;38.90;;;;;;5037170;28;20083;-78
2021/09/06 12:40:50;;;;;;;1.33;0.98;;;31.30;39.30;;;;;;5053114;28;20037;-75
2021/09/06 12:43:17;;;;;;;2.03;1.17;;;31.30;38.60;;;;;;5064028;28;20051;-74